sensor_id;sensor_type;location;lat;lon;timestamp;P1;durP1;ratioP1;P2;durP2;ratioP2
46411;SDS011;32113;42.012;24.870;2023-02-18T00:01:55;9.20;;;4.85;;
46411;SDS011;32113;42.012;24.870;2023-02-18T00:04:20;10.13;;;4.88;;
46411;SDS011;32113;42.012;24.870;2023-02-18T00:06:46;11.52;;;4.65;;
46411;SDS011;32113;42.012;24.870;2023-02-18T00:09:11;11.48;;;5.65;;
46411;SDS011;32113;42.012;24.870;2023-02-18T00:11:37;9.50;;;5.07;;
46411;SDS011;32113;42.012;24.870;2023-02-18T00:14:04;8.95;;;4.25;;
46411;SDS011;32113;42.012;24.870;2023-02-18T00:16:31;14.18;;;5.00;;
46411;SDS011;32113;42.012;24.870;2023-02-18T00:18:57;7.47;;;4.63;;
46411;SDS011;32113;42.012;24.870;2023-02-18T00:21:24;10.18;;;4.55;;
46411;SDS011;32113;42.012;24.870;2023-02-18T00:23:50;8.32;;;4.28;;
46411;SDS011;32113;42.012;24.870;2023-02-18T00:26:16;8.07;;;4.72;;
46411;SDS011;32113;42.012;24.870;2023-02-18T00:28:42;8.60;;;4.53;;
46411;SDS011;32113;42.012;24.870;2023-02-18T00:31:12;8.70;;;4.70;;
46411;SDS011;32113;42.012;24.870;2023-02-18T00:33:41;7.78;;;4.78;;
46411;SDS011;32113;42.012;24.870;2023-02-18T00:36:09;8.35;;;4.70;;
46411;SDS011;32113;42.012;24.870;2023-02-18T00:38:37;12.90;;;4.60;;
46411;SDS011;32113;42.012;24.870;2023-02-18T00:41:02;11.40;;;4.47;;
46411;SDS011;32113;42.012;24.870;2023-02-18T00:43:28;10.40;;;4.35;;
46411;SDS011;32113;42.012;24.870;2023-02-18T00:45:53;7.32;;;4.60;;
46411;SDS011;32113;42.012;24.870;2023-02-18T00:48:19;6.32;;;3.75;;
46411;SDS011;32113;42.012;24.870;2023-02-18T00:50:45;8.45;;;4.40;;
46411;SDS011;32113;42.012;24.870;2023-02-18T00:53:11;10.43;;;4.82;;
46411;SDS011;32113;42.012;24.870;2023-02-18T00:55:40;9.02;;;4.53;;
46411;SDS011;32113;42.012;24.870;2023-02-18T00:58:07;8.95;;;4.75;;
46411;SDS011;32113;42.012;24.870;2023-02-18T01:00:33;8.48;;;4.25;;
46411;SDS011;32113;42.012;24.870;2023-02-18T01:02:58;12.27;;;4.68;;
46411;SDS011;32113;42.012;24.870;2023-02-18T01:05:24;11.77;;;4.72;;
46411;SDS011;32113;42.012;24.870;2023-02-18T01:07:49;6.80;;;4.30;;
46411;SDS011;32113;42.012;24.870;2023-02-18T01:10:15;9.48;;;5.07;;
46411;SDS011;32113;42.012;24.870;2023-02-18T01:12:41;5.95;;;4.25;;
46411;SDS011;32113;42.012;24.870;2023-02-18T01:15:06;10.13;;;5.05;;
46411;SDS011;32113;42.012;24.870;2023-02-18T01:17:32;7.40;;;5.10;;
46411;SDS011;32113;42.012;24.870;2023-02-18T01:19:58;12.40;;;4.65;;
46411;SDS011;32113;42.012;24.870;2023-02-18T01:22:24;7.65;;;4.20;;
46411;SDS011;32113;42.012;24.870;2023-02-18T01:24:50;9.90;;;4.05;;
46411;SDS011;32113;42.012;24.870;2023-02-18T01:27:16;7.68;;;4.18;;
46411;SDS011;32113;42.012;24.870;2023-02-18T01:29:41;7.10;;;4.38;;
46411;SDS011;32113;42.012;24.870;2023-02-18T01:32:07;8.32;;;4.40;;
46411;SDS011;32113;42.012;24.870;2023-02-18T01:34:32;9.25;;;3.83;;
46411;SDS011;32113;42.012;24.870;2023-02-18T01:36:58;6.38;;;3.92;;
46411;SDS011;32113;42.012;24.870;2023-02-18T01:39:23;6.50;;;3.85;;
46411;SDS011;32113;42.012;24.870;2023-02-18T01:41:49;7.18;;;3.95;;
46411;SDS011;32113;42.012;24.870;2023-02-18T01:44:21;8.20;;;4.38;;
46411;SDS011;32113;42.012;24.870;2023-02-18T01:46:49;9.23;;;4.40;;
46411;SDS011;32113;42.012;24.870;2023-02-18T01:49:18;10.63;;;4.15;;
46411;SDS011;32113;42.012;24.870;2023-02-18T01:51:48;12.80;;;4.00;;
46411;SDS011;32113;42.012;24.870;2023-02-18T01:54:29;6.15;;;3.80;;
46411;SDS011;32113;42.012;24.870;2023-02-18T01:56:59;7.60;;;4.10;;
46411;SDS011;32113;42.012;24.870;2023-02-18T01:59:30;7.28;;;3.72;;
46411;SDS011;32113;42.012;24.870;2023-02-18T02:01:58;7.10;;;3.78;;
46411;SDS011;32113;42.012;24.870;2023-02-18T02:04:23;5.68;;;3.65;;
46411;SDS011;32113;42.012;24.870;2023-02-18T02:06:49;11.75;;;4.05;;
46411;SDS011;32113;42.012;24.870;2023-02-18T02:09:15;6.07;;;3.88;;
46411;SDS011;32113;42.012;24.870;2023-02-18T02:12:01;8.25;;;3.85;;
46411;SDS011;32113;42.012;24.870;2023-02-18T02:39:14;6.80;;;3.90;;
46411;SDS011;32113;42.012;24.870;2023-02-18T02:47:15;7.28;;;4.07;;
46411;SDS011;32113;42.012;24.870;2023-02-18T02:49:51;6.65;;;3.75;;
46411;SDS011;32113;42.012;24.870;2023-02-18T02:52:37;6.30;;;3.60;;
46411;SDS011;32113;42.012;24.870;2023-02-18T02:55:08;5.75;;;3.53;;
46411;SDS011;32113;42.012;24.870;2023-02-18T03:00:02;5.78;;;3.67;;
46411;SDS011;32113;42.012;24.870;2023-02-18T03:02:46;9.07;;;4.10;;
46411;SDS011;32113;42.012;24.870;2023-02-18T03:05:27;7.97;;;3.78;;
46411;SDS011;32113;42.012;24.870;2023-02-18T03:19:05;8.13;;;3.70;;
46411;SDS011;32113;42.012;24.870;2023-02-18T03:21:38;7.53;;;3.85;;
46411;SDS011;32113;42.012;24.870;2023-02-18T03:24:11;8.13;;;3.50;;
46411;SDS011;32113;42.012;24.870;2023-02-18T03:26:44;6.15;;;3.70;;
46411;SDS011;32113;42.012;24.870;2023-02-18T03:29:14;9.20;;;3.70;;
46411;SDS011;32113;42.012;24.870;2023-02-18T03:31:42;5.43;;;3.42;;
46411;SDS011;32113;42.012;24.870;2023-02-18T03:34:13;16.48;;;4.35;;
46411;SDS011;32113;42.012;24.870;2023-02-18T03:36:43;7.47;;;3.60;;
46411;SDS011;32113;42.012;24.870;2023-02-18T03:39:16;7.45;;;3.35;;
46411;SDS011;32113;42.012;24.870;2023-02-18T03:41:43;11.60;;;3.88;;
46411;SDS011;32113;42.012;24.870;2023-02-18T03:44:09;6.18;;;3.50;;
46411;SDS011;32113;42.012;24.870;2023-02-18T03:46:36;7.50;;;3.40;;
46411;SDS011;32113;42.012;24.870;2023-02-18T03:49:03;6.80;;;3.67;;
46411;SDS011;32113;42.012;24.870;2023-02-18T03:51:29;8.30;;;3.22;;
46411;SDS011;32113;42.012;24.870;2023-02-18T03:53:54;6.25;;;3.50;;
46411;SDS011;32113;42.012;24.870;2023-02-18T03:56:20;6.78;;;3.97;;
46411;SDS011;32113;42.012;24.870;2023-02-18T03:58:45;6.57;;;3.25;;
46411;SDS011;32113;42.012;24.870;2023-02-18T04:01:11;8.63;;;3.53;;
46411;SDS011;32113;42.012;24.870;2023-02-18T04:03:36;11.02;;;3.63;;
46411;SDS011;32113;42.012;24.870;2023-02-18T04:06:02;9.55;;;3.50;;
46411;SDS011;32113;42.012;24.870;2023-02-18T04:08:28;8.07;;;3.50;;
46411;SDS011;32113;42.012;24.870;2023-02-18T04:10:53;9.35;;;3.40;;
46411;SDS011;32113;42.012;24.870;2023-02-18T04:13:19;6.53;;;3.33;;
46411;SDS011;32113;42.012;24.870;2023-02-18T04:15:44;6.00;;;3.30;;
46411;SDS011;32113;42.012;24.870;2023-02-18T04:18:10;8.32;;;4.22;;
46411;SDS011;32113;42.012;24.870;2023-02-18T04:20:36;10.98;;;3.58;;
46411;SDS011;32113;42.012;24.870;2023-02-18T04:23:02;7.45;;;3.58;;
46411;SDS011;32113;42.012;24.870;2023-02-18T04:25:28;8.15;;;3.97;;
46411;SDS011;32113;42.012;24.870;2023-02-18T04:27:54;7.13;;;3.75;;
46411;SDS011;32113;42.012;24.870;2023-02-18T04:30:19;6.43;;;3.53;;
46411;SDS011;32113;42.012;24.870;2023-02-18T04:32:45;7.60;;;4.00;;
46411;SDS011;32113;42.012;24.870;2023-02-18T04:35:11;9.27;;;3.03;;
46411;SDS011;32113;42.012;24.870;2023-02-18T04:37:36;5.78;;;3.03;;
46411;SDS011;32113;42.012;24.870;2023-02-18T04:40:02;6.50;;;2.90;;
46411;SDS011;32113;42.012;24.870;2023-02-18T04:42:28;5.43;;;2.90;;
46411;SDS011;32113;42.012;24.870;2023-02-18T04:44:53;7.07;;;3.25;;
46411;SDS011;32113;42.012;24.870;2023-02-18T04:47:18;8.98;;;3.65;;
46411;SDS011;32113;42.012;24.870;2023-02-18T04:49:44;7.75;;;3.63;;
46411;SDS011;32113;42.012;24.870;2023-02-18T04:52:09;5.15;;;3.17;;
46411;SDS011;32113;42.012;24.870;2023-02-18T04:54:35;6.90;;;2.90;;
46411;SDS011;32113;42.012;24.870;2023-02-18T04:57:00;6.57;;;2.90;;
46411;SDS011;32113;42.012;24.870;2023-02-18T04:59:25;7.63;;;3.17;;
46411;SDS011;32113;42.012;24.870;2023-02-18T05:01:51;5.30;;;2.90;;
46411;SDS011;32113;42.012;24.870;2023-02-18T05:04:16;5.25;;;2.40;;
46411;SDS011;32113;42.012;24.870;2023-02-18T05:06:42;11.00;;;3.05;;
46411;SDS011;32113;42.012;24.870;2023-02-18T05:09:08;6.00;;;3.45;;
46411;SDS011;32113;42.012;24.870;2023-02-18T05:11:34;8.25;;;3.20;;
46411;SDS011;32113;42.012;24.870;2023-02-18T05:14:00;9.52;;;4.40;;
46411;SDS011;32113;42.012;24.870;2023-02-18T05:16:25;9.02;;;3.42;;
46411;SDS011;32113;42.012;24.870;2023-02-18T05:18:51;8.00;;;3.30;;
46411;SDS011;32113;42.012;24.870;2023-02-18T05:21:16;7.60;;;3.63;;
46411;SDS011;32113;42.012;24.870;2023-02-18T05:23:41;7.10;;;3.60;;
46411;SDS011;32113;42.012;24.870;2023-02-18T05:26:07;6.60;;;3.60;;
46411;SDS011;32113;42.012;24.870;2023-02-18T05:28:32;6.88;;;3.42;;
46411;SDS011;32113;42.012;24.870;2023-02-18T05:30:58;7.25;;;4.05;;
46411;SDS011;32113;42.012;24.870;2023-02-18T05:33:23;9.98;;;4.45;;
46411;SDS011;32113;42.012;24.870;2023-02-18T05:35:48;8.90;;;3.80;;
46411;SDS011;32113;42.012;24.870;2023-02-18T05:38:14;9.10;;;3.20;;
46411;SDS011;32113;42.012;24.870;2023-02-18T05:40:39;8.02;;;3.75;;
46411;SDS011;32113;42.012;24.870;2023-02-18T05:43:05;9.45;;;3.80;;
46411;SDS011;32113;42.012;24.870;2023-02-18T05:45:30;10.63;;;5.03;;
46411;SDS011;32113;42.012;24.870;2023-02-18T05:47:56;9.15;;;4.40;;
46411;SDS011;32113;42.012;24.870;2023-02-18T05:50:21;7.15;;;3.47;;
46411;SDS011;32113;42.012;24.870;2023-02-18T05:52:47;9.07;;;3.78;;
46411;SDS011;32113;42.012;24.870;2023-02-18T05:55:12;14.48;;;5.95;;
46411;SDS011;32113;42.012;24.870;2023-02-18T05:57:38;26.60;;;13.68;;
46411;SDS011;32113;42.012;24.870;2023-02-18T06:00:04;22.13;;;11.30;;
46411;SDS011;32113;42.012;24.870;2023-02-18T06:02:30;57.92;;;38.08;;
46411;SDS011;32113;42.012;24.870;2023-02-18T06:04:55;24.80;;;13.38;;
46411;SDS011;32113;42.012;24.870;2023-02-18T06:07:21;25.70;;;13.15;;
46411;SDS011;32113;42.012;24.870;2023-02-18T06:09:47;21.27;;;11.95;;
46411;SDS011;32113;42.012;24.870;2023-02-18T06:12:12;8.63;;;3.85;;
46411;SDS011;32113;42.012;24.870;2023-02-18T06:14:38;8.43;;;4.10;;
46411;SDS011;32113;42.012;24.870;2023-02-18T06:17:06;6.68;;;3.60;;
46411;SDS011;32113;42.012;24.870;2023-02-18T06:19:33;7.33;;;3.53;;
46411;SDS011;32113;42.012;24.870;2023-02-18T06:21:58;6.55;;;3.05;;
46411;SDS011;32113;42.012;24.870;2023-02-18T06:24:24;7.05;;;3.30;;
46411;SDS011;32113;42.012;24.870;2023-02-18T06:26:49;7.63;;;3.17;;
46411;SDS011;32113;42.012;24.870;2023-02-18T06:29:15;9.45;;;4.82;;
46411;SDS011;32113;42.012;24.870;2023-02-18T06:31:40;11.35;;;4.03;;
46411;SDS011;32113;42.012;24.870;2023-02-18T06:34:05;6.22;;;3.35;;
46411;SDS011;32113;42.012;24.870;2023-02-18T06:36:31;9.15;;;4.18;;
46411;SDS011;32113;42.012;24.870;2023-02-18T06:38:56;9.43;;;3.60;;
46411;SDS011;32113;42.012;24.870;2023-02-18T06:41:23;10.98;;;4.10;;
46411;SDS011;32113;42.012;24.870;2023-02-18T06:43:49;5.50;;;3.45;;
46411;SDS011;32113;42.012;24.870;2023-02-18T06:46:14;7.47;;;3.30;;
46411;SDS011;32113;42.012;24.870;2023-02-18T06:48:40;6.85;;;3.17;;
46411;SDS011;32113;42.012;24.870;2023-02-18T06:51:05;9.60;;;3.33;;
46411;SDS011;32113;42.012;24.870;2023-02-18T06:53:31;8.50;;;3.20;;
46411;SDS011;32113;42.012;24.870;2023-02-18T06:55:56;9.65;;;5.28;;
46411;SDS011;32113;42.012;24.870;2023-02-18T06:58:22;7.45;;;3.47;;
46411;SDS011;32113;42.012;24.870;2023-02-18T07:00:47;7.82;;;3.40;;
46411;SDS011;32113;42.012;24.870;2023-02-18T07:03:13;8.48;;;2.88;;
46411;SDS011;32113;42.012;24.870;2023-02-18T07:05:39;16.27;;;4.65;;
46411;SDS011;32113;42.012;24.870;2023-02-18T07:08:05;10.68;;;6.55;;
46411;SDS011;32113;42.012;24.870;2023-02-18T07:10:30;8.73;;;3.67;;
46411;SDS011;32113;42.012;24.870;2023-02-18T07:12:56;8.07;;;3.35;;
46411;SDS011;32113;42.012;24.870;2023-02-18T07:15:21;7.05;;;3.15;;
46411;SDS011;32113;42.012;24.870;2023-02-18T07:17:49;5.88;;;3.13;;
46411;SDS011;32113;42.012;24.870;2023-02-18T07:20:15;7.83;;;2.70;;
46411;SDS011;32113;42.012;24.870;2023-02-18T07:22:41;7.68;;;2.85;;
46411;SDS011;32113;42.012;24.870;2023-02-18T07:25:06;6.95;;;3.03;;
46411;SDS011;32113;42.012;24.870;2023-02-18T07:27:32;12.38;;;3.58;;
46411;SDS011;32113;42.012;24.870;2023-02-18T07:29:57;6.13;;;2.55;;
46411;SDS011;32113;42.012;24.870;2023-02-18T07:32:22;47.33;;;23.65;;
46411;SDS011;32113;42.012;24.870;2023-02-18T07:34:49;11.90;;;5.32;;
46411;SDS011;32113;42.012;24.870;2023-02-18T07:37:16;10.00;;;3.70;;
46411;SDS011;32113;42.012;24.870;2023-02-18T07:39:42;8.75;;;3.70;;
46411;SDS011;32113;42.012;24.870;2023-02-18T07:42:12;11.27;;;4.25;;
46411;SDS011;32113;42.012;24.870;2023-02-18T07:44:39;15.98;;;5.85;;
46411;SDS011;32113;42.012;24.870;2023-02-18T07:47:05;9.93;;;3.85;;
46411;SDS011;32113;42.012;24.870;2023-02-18T07:49:32;11.13;;;5.47;;
46411;SDS011;32113;42.012;24.870;2023-02-18T07:51:57;12.43;;;6.18;;
46411;SDS011;32113;42.012;24.870;2023-02-18T07:54:23;10.73;;;4.53;;
46411;SDS011;32113;42.012;24.870;2023-02-18T07:56:49;9.38;;;3.97;;
46411;SDS011;32113;42.012;24.870;2023-02-18T07:59:14;10.02;;;4.07;;
46411;SDS011;32113;42.012;24.870;2023-02-18T08:01:40;13.30;;;4.20;;
46411;SDS011;32113;42.012;24.870;2023-02-18T08:04:06;10.98;;;3.90;;
46411;SDS011;32113;42.012;24.870;2023-02-18T08:06:36;7.63;;;3.45;;
46411;SDS011;32113;42.012;24.870;2023-02-18T08:09:03;9.23;;;5.38;;
46411;SDS011;32113;42.012;24.870;2023-02-18T08:11:29;10.65;;;3.88;;
46411;SDS011;32113;42.012;24.870;2023-02-18T08:13:54;24.42;;;14.10;;
46411;SDS011;32113;42.012;24.870;2023-02-18T08:16:20;21.50;;;13.00;;
46411;SDS011;32113;42.012;24.870;2023-02-18T08:18:47;49.35;;;26.40;;
46411;SDS011;32113;42.012;24.870;2023-02-18T08:21:14;43.05;;;26.67;;
46411;SDS011;32113;42.012;24.870;2023-02-18T08:23:40;13.93;;;6.32;;
46411;SDS011;32113;42.012;24.870;2023-02-18T08:26:06;14.63;;;7.38;;
46411;SDS011;32113;42.012;24.870;2023-02-18T08:28:32;12.32;;;5.35;;
46411;SDS011;32113;42.012;24.870;2023-02-18T08:30:57;30.33;;;15.05;;
46411;SDS011;32113;42.012;24.870;2023-02-18T08:33:23;33.97;;;17.38;;
46411;SDS011;32113;42.012;24.870;2023-02-18T08:35:49;9.98;;;5.38;;
46411;SDS011;32113;42.012;24.870;2023-02-18T08:38:17;12.93;;;5.13;;
46411;SDS011;32113;42.012;24.870;2023-02-18T08:40:42;12.18;;;6.10;;
46411;SDS011;32113;42.012;24.870;2023-02-18T08:43:08;10.57;;;5.47;;
46411;SDS011;32113;42.012;24.870;2023-02-18T08:45:35;12.88;;;7.20;;
46411;SDS011;32113;42.012;24.870;2023-02-18T08:50:27;10.15;;;4.95;;
46411;SDS011;32113;42.012;24.870;2023-02-18T08:52:52;10.23;;;5.10;;
46411;SDS011;32113;42.012;24.870;2023-02-18T08:55:18;10.48;;;4.75;;
46411;SDS011;32113;42.012;24.870;2023-02-18T08:57:48;19.75;;;13.73;;
46411;SDS011;32113;42.012;24.870;2023-02-18T09:00:14;30.85;;;18.38;;
46411;SDS011;32113;42.012;24.870;2023-02-18T09:02:41;28.02;;;15.77;;
46411;SDS011;32113;42.012;24.870;2023-02-18T09:05:07;28.70;;;18.17;;
46411;SDS011;32113;42.012;24.870;2023-02-18T09:07:34;15.85;;;9.48;;
46411;SDS011;32113;42.012;24.870;2023-02-18T09:09:59;25.60;;;13.63;;
46411;SDS011;32113;42.012;24.870;2023-02-18T09:12:25;8.90;;;4.65;;
46411;SDS011;32113;42.012;24.870;2023-02-18T09:14:50;9.30;;;4.63;;
46411;SDS011;32113;42.012;24.870;2023-02-18T09:17:16;8.82;;;4.80;;
46411;SDS011;32113;42.012;24.870;2023-02-18T09:19:41;10.63;;;4.97;;
46411;SDS011;32113;42.012;24.870;2023-02-18T09:22:07;9.35;;;5.82;;
46411;SDS011;32113;42.012;24.870;2023-02-18T09:24:36;10.15;;;4.30;;
46411;SDS011;32113;42.012;24.870;2023-02-18T09:27:02;7.47;;;4.30;;
46411;SDS011;32113;42.012;24.870;2023-02-18T09:29:28;9.85;;;4.88;;
46411;SDS011;32113;42.012;24.870;2023-02-18T09:31:53;10.63;;;4.63;;
46411;SDS011;32113;42.012;24.870;2023-02-18T09:34:19;8.35;;;4.53;;
46411;SDS011;32113;42.012;24.870;2023-02-18T09:36:44;6.28;;;3.50;;
46411;SDS011;32113;42.012;24.870;2023-02-18T09:39:09;8.20;;;4.32;;
46411;SDS011;32113;42.012;24.870;2023-02-18T09:41:44;15.15;;;3.88;;
46411;SDS011;32113;42.012;24.870;2023-02-18T09:44:55;8.25;;;4.30;;
46411;SDS011;32113;42.012;24.870;2023-02-18T09:47:12;9.68;;;5.18;;
46411;SDS011;32113;42.012;24.870;2023-02-18T09:52:58;15.40;;;6.65;;
46411;SDS011;32113;42.012;24.870;2023-02-18T09:55:34;9.37;;;4.80;;
46411;SDS011;32113;42.012;24.870;2023-02-18T09:58:06;9.38;;;4.00;;
46411;SDS011;32113;42.012;24.870;2023-02-18T10:00:45;7.18;;;3.80;;
46411;SDS011;32113;42.012;24.870;2023-02-18T10:05:48;6.18;;;4.07;;
46411;SDS011;32113;42.012;24.870;2023-02-18T10:08:24;8.05;;;4.68;;
46411;SDS011;32113;42.012;24.870;2023-02-18T10:10:58;6.25;;;4.18;;
46411;SDS011;32113;42.012;24.870;2023-02-18T10:13:24;8.43;;;4.45;;
46411;SDS011;32113;42.012;24.870;2023-02-18T10:15:53;11.98;;;4.43;;
46411;SDS011;32113;42.012;24.870;2023-02-18T10:21:37;8.98;;;4.68;;
46411;SDS011;32113;42.012;24.870;2023-02-18T10:23:51;8.57;;;4.97;;
46411;SDS011;32113;42.012;24.870;2023-02-18T10:26:20;9.57;;;4.43;;
46411;SDS011;32113;42.012;24.870;2023-02-18T10:28:46;11.25;;;5.45;;
46411;SDS011;32113;42.012;24.870;2023-02-18T10:31:14;9.02;;;4.85;;
46411;SDS011;32113;42.012;24.870;2023-02-18T10:36:33;13.18;;;5.95;;
46411;SDS011;32113;42.012;24.870;2023-02-18T10:50:07;10.20;;;3.72;;
46411;SDS011;32113;42.012;24.870;2023-02-18T10:52:44;8.70;;;3.88;;
46411;SDS011;32113;42.012;24.870;2023-02-18T10:55:14;9.35;;;3.67;;
46411;SDS011;32113;42.012;24.870;2023-02-18T10:57:50;7.05;;;4.03;;
46411;SDS011;32113;42.012;24.870;2023-02-18T11:00:24;11.00;;;4.18;;
46411;SDS011;32113;42.012;24.870;2023-02-18T11:03:09;11.00;;;3.85;;
46411;SDS011;32113;42.012;24.870;2023-02-18T11:05:41;11.60;;;5.13;;
46411;SDS011;32113;42.012;24.870;2023-02-18T11:08:09;7.13;;;4.03;;
46411;SDS011;32113;42.012;24.870;2023-02-18T11:10:39;8.77;;;4.18;;
46411;SDS011;32113;42.012;24.870;2023-02-18T11:13:08;6.60;;;2.70;;
46411;SDS011;32113;42.012;24.870;2023-02-18T11:15:36;4.20;;;2.17;;
46411;SDS011;32113;42.012;24.870;2023-02-18T11:20:54;11.55;;;5.55;;
46411;SDS011;32113;42.012;24.870;2023-02-18T11:23:21;11.25;;;4.00;;
46411;SDS011;32113;42.012;24.870;2023-02-18T11:26:06;7.75;;;3.05;;
46411;SDS011;32113;42.012;24.870;2023-02-18T11:28:41;5.28;;;2.92;;
46411;SDS011;32113;42.012;24.870;2023-02-18T11:31:11;8.93;;;4.68;;
46411;SDS011;32113;42.012;24.870;2023-02-18T11:33:46;9.80;;;4.78;;
46411;SDS011;32113;42.012;24.870;2023-02-18T11:39:03;9.63;;;3.80;;
46411;SDS011;32113;42.012;24.870;2023-02-18T11:41:40;7.50;;;2.63;;
46411;SDS011;32113;42.012;24.870;2023-02-18T11:44:19;9.10;;;3.45;;
46411;SDS011;32113;42.012;24.870;2023-02-18T11:49:30;7.88;;;2.90;;
46411;SDS011;32113;42.012;24.870;2023-02-18T11:52:18;7.43;;;2.75;;
46411;SDS011;32113;42.012;24.870;2023-02-18T11:55:01;8.35;;;3.72;;
46411;SDS011;32113;42.012;24.870;2023-02-18T11:57:32;6.65;;;3.45;;
46411;SDS011;32113;42.012;24.870;2023-02-18T12:00:00;7.95;;;2.40;;
46411;SDS011;32113;42.012;24.870;2023-02-18T12:02:29;6.25;;;2.08;;
46411;SDS011;32113;42.012;24.870;2023-02-18T12:07:44;7.22;;;2.42;;
46411;SDS011;32113;42.012;24.870;2023-02-18T12:13:04;6.93;;;2.60;;
46411;SDS011;32113;42.012;24.870;2023-02-18T12:26:53;4.20;;;1.92;;
46411;SDS011;32113;42.012;24.870;2023-02-18T12:29:36;6.20;;;2.40;;
46411;SDS011;32113;42.012;24.870;2023-02-18T12:47:30;9.25;;;2.60;;
46411;SDS011;32113;42.012;24.870;2023-02-18T13:00:48;9.93;;;3.30;;
46411;SDS011;32113;42.012;24.870;2023-02-18T13:06:41;11.15;;;3.83;;
46411;SDS011;32113;42.012;24.870;2023-02-18T13:14:32;9.40;;;3.40;;
46411;SDS011;32113;42.012;24.870;2023-02-18T13:17:21;9.43;;;3.90;;
46411;SDS011;32113;42.012;24.870;2023-02-18T13:19:59;9.80;;;4.20;;
46411;SDS011;32113;42.012;24.870;2023-02-18T13:22:31;8.13;;;4.00;;
46411;SDS011;32113;42.012;24.870;2023-02-18T13:24:57;9.13;;;4.22;;
46411;SDS011;32113;42.012;24.870;2023-02-18T13:35:40;8.45;;;4.43;;
46411;SDS011;32113;42.012;24.870;2023-02-18T13:40:52;9.85;;;5.00;;
46411;SDS011;32113;42.012;24.870;2023-02-18T13:43:31;10.18;;;5.10;;
46411;SDS011;32113;42.012;24.870;2023-02-18T13:46:17;10.50;;;4.85;;
46411;SDS011;32113;42.012;24.870;2023-02-18T13:51:32;7.90;;;5.07;;
46411;SDS011;32113;42.012;24.870;2023-02-18T13:54:31;9.65;;;5.28;;
46411;SDS011;32113;42.012;24.870;2023-02-18T13:57:14;9.95;;;4.80;;
46411;SDS011;32113;42.012;24.870;2023-02-18T13:59:47;8.73;;;4.82;;
46411;SDS011;32113;42.012;24.870;2023-02-18T14:09:46;8.93;;;5.07;;
46411;SDS011;32113;42.012;24.870;2023-02-18T14:14:40;11.82;;;5.80;;
46411;SDS011;32113;42.012;24.870;2023-02-18T14:27:32;8.70;;;4.78;;
46411;SDS011;32113;42.012;24.870;2023-02-18T14:30:02;7.85;;;4.95;;
46411;SDS011;32113;42.012;24.870;2023-02-18T14:32:31;9.90;;;5.78;;
46411;SDS011;32113;42.012;24.870;2023-02-18T14:37:38;12.30;;;5.80;;
46411;SDS011;32113;42.012;24.870;2023-02-18T14:41:11;10.02;;;5.65;;
46411;SDS011;32113;42.012;24.870;2023-02-18T14:52:10;10.82;;;6.13;;
46411;SDS011;32113;42.012;24.870;2023-02-18T14:54:43;12.10;;;6.10;;
46411;SDS011;32113;42.012;24.870;2023-02-18T14:57:14;12.65;;;7.00;;
46411;SDS011;32113;42.012;24.870;2023-02-18T14:59:45;11.98;;;6.90;;
46411;SDS011;32113;42.012;24.870;2023-02-18T15:02:29;13.10;;;6.43;;
46411;SDS011;32113;42.012;24.870;2023-02-18T15:05:19;11.57;;;6.35;;
46411;SDS011;32113;42.012;24.870;2023-02-18T15:07:56;16.38;;;6.65;;
46411;SDS011;32113;42.012;24.870;2023-02-18T15:10:35;14.82;;;8.02;;
46411;SDS011;32113;42.012;24.870;2023-02-18T15:13:19;13.50;;;8.07;;
46411;SDS011;32113;42.012;24.870;2023-02-18T15:15:51;19.42;;;9.43;;
46411;SDS011;32113;42.012;24.870;2023-02-18T15:18:20;21.00;;;10.35;;
46411;SDS011;32113;42.012;24.870;2023-02-18T15:20:52;15.88;;;9.98;;
46411;SDS011;32113;42.012;24.870;2023-02-18T15:23:19;16.65;;;10.30;;
46411;SDS011;32113;42.012;24.870;2023-02-18T15:25:46;21.15;;;10.30;;
46411;SDS011;32113;42.012;24.870;2023-02-18T15:28:22;13.15;;;7.90;;
46411;SDS011;32113;42.012;24.870;2023-02-18T15:30:49;24.52;;;12.00;;
46411;SDS011;32113;42.012;24.870;2023-02-18T15:33:16;19.27;;;11.27;;
46411;SDS011;32113;42.012;24.870;2023-02-18T15:35:44;17.65;;;10.93;;
46411;SDS011;32113;42.012;24.870;2023-02-18T15:38:16;16.95;;;10.07;;
46411;SDS011;32113;42.012;24.870;2023-02-18T15:40:45;16.30;;;8.85;;
46411;SDS011;32113;42.012;24.870;2023-02-18T15:43:15;18.25;;;9.05;;
46411;SDS011;32113;42.012;24.870;2023-02-18T15:45:45;19.77;;;9.20;;
46411;SDS011;32113;42.012;24.870;2023-02-18T15:48:57;14.43;;;8.18;;
46411;SDS011;32113;42.012;24.870;2023-02-18T15:51:04;16.85;;;8.02;;
46411;SDS011;32113;42.012;24.870;2023-02-18T15:53:35;17.23;;;8.45;;
46411;SDS011;32113;42.012;24.870;2023-02-18T15:56:11;15.32;;;7.65;;
46411;SDS011;32113;42.012;24.870;2023-02-18T15:58:42;16.00;;;8.82;;
46411;SDS011;32113;42.012;24.870;2023-02-18T16:01:22;17.42;;;9.23;;
46411;SDS011;32113;42.012;24.870;2023-02-18T16:03:50;13.75;;;7.18;;
46411;SDS011;32113;42.012;24.870;2023-02-18T16:06:26;10.80;;;5.80;;
46411;SDS011;32113;42.012;24.870;2023-02-18T16:09:11;8.68;;;4.88;;
46411;SDS011;32113;42.012;24.870;2023-02-18T16:11:44;9.88;;;4.80;;
46411;SDS011;32113;42.012;24.870;2023-02-18T16:14:22;12.98;;;5.35;;
46411;SDS011;32113;42.012;24.870;2023-02-18T16:16:55;10.88;;;5.75;;
46411;SDS011;32113;42.012;24.870;2023-02-18T16:19:38;10.90;;;6.88;;
46411;SDS011;32113;42.012;24.870;2023-02-18T16:22:23;16.85;;;9.10;;
46411;SDS011;32113;42.012;24.870;2023-02-18T16:24:59;24.67;;;11.05;;
46411;SDS011;32113;42.012;24.870;2023-02-18T16:27:32;19.88;;;10.57;;
46411;SDS011;32113;42.012;24.870;2023-02-18T16:30:01;19.17;;;9.65;;
46411;SDS011;32113;42.012;24.870;2023-02-18T16:32:47;20.90;;;11.88;;
46411;SDS011;32113;42.012;24.870;2023-02-18T16:35:13;19.33;;;11.30;;
46411;SDS011;32113;42.012;24.870;2023-02-18T16:37:38;18.00;;;11.02;;
46411;SDS011;32113;42.012;24.870;2023-02-18T16:42:51;24.77;;;12.60;;
46411;SDS011;32113;42.012;24.870;2023-02-18T16:45:17;26.20;;;12.65;;
46411;SDS011;32113;42.012;24.870;2023-02-18T16:47:44;25.00;;;13.18;;
46411;SDS011;32113;42.012;24.870;2023-02-18T16:50:19;24.77;;;13.65;;
46411;SDS011;32113;42.012;24.870;2023-02-18T16:52:45;55.75;;;27.33;;
46411;SDS011;32113;42.012;24.870;2023-02-18T16:55:16;90.15;;;37.05;;
46411;SDS011;32113;42.012;24.870;2023-02-18T16:57:47;92.60;;;41.58;;
46411;SDS011;32113;42.012;24.870;2023-02-18T17:00:13;73.35;;;32.90;;
46411;SDS011;32113;42.012;24.870;2023-02-18T17:02:40;72.22;;;31.55;;
46411;SDS011;32113;42.012;24.870;2023-02-18T17:05:07;59.67;;;27.30;;
46411;SDS011;32113;42.012;24.870;2023-02-18T17:07:32;52.75;;;24.95;;
46411;SDS011;32113;42.012;24.870;2023-02-18T17:09:58;42.25;;;22.25;;
46411;SDS011;32113;42.012;24.870;2023-02-18T17:12:23;35.58;;;20.27;;
46411;SDS011;32113;42.012;24.870;2023-02-18T17:14:49;47.03;;;24.88;;
46411;SDS011;32113;42.012;24.870;2023-02-18T17:17:16;46.97;;;25.92;;
46411;SDS011;32113;42.012;24.870;2023-02-18T17:19:45;67.60;;;34.15;;
46411;SDS011;32113;42.012;24.870;2023-02-18T17:22:12;53.63;;;25.58;;
46411;SDS011;32113;42.012;24.870;2023-02-18T17:24:37;53.33;;;25.73;;
46411;SDS011;32113;42.012;24.870;2023-02-18T17:27:03;37.90;;;20.52;;
46411;SDS011;32113;42.012;24.870;2023-02-18T17:29:28;89.65;;;38.70;;
46411;SDS011;32113;42.012;24.870;2023-02-18T17:31:54;35.72;;;20.48;;
46411;SDS011;32113;42.012;24.870;2023-02-18T17:34:23;37.35;;;22.40;;